Time;durP1;ratioP1;P1;durP2;ratioP2;P2;SDS_P1;SDS_P2;PMS_P1;PMS_P2;Temp;Humidity;BMP_temperature;BMP_pressure;BME280_temperature;BME280_humidity;BME280_pressure;Samples;Min_cycle;Max_cycle;Signal;HPM_P1;HPM_P2
2020/12/04 00:00:53;;;;;;;74.40;28.57;;;;;;;-0.76;100.00;99771.22;1697423;83;21202;-62
2020/12/04 00:03:21;;;;;;;64.95;27.73;;;;;;;-0.79;100.00;99768.84;1717318;83;21205;-62
2020/12/04 00:05:49;;;;;;;61.45;23.85;;;;;;;-0.81;100.00;99775.09;1699682;83;21303;-62
2020/12/04 00:08:17;;;;;;;71.37;27.37;;;;;;;-0.80;100.00;99785.70;1702374;83;21390;-62
2020/12/04 00:10:45;;;;;;;76.87;31.77;;;;;;;-0.80;100.00;99812.31;1720477;83;21282;-62
2020/12/04 00:13:13;;;;;;;63.55;28.87;;;;;;;-0.78;100.00;99787.09;1707435;83;21151;-64
2020/12/04 00:15:40;;;;;;;61.45;27.13;;;;;;;-0.77;100.00;99778.30;1719927;83;21156;-63
2020/12/04 00:18:08;;;;;;;72.12;28.38;;;;;;;-0.77;100.00;99780.84;1714461;81;21163;-61
2020/12/04 00:20:36;;;;;;;63.08;26.77;;;;;;;-0.79;100.00;99800.16;1698055;83;21126;-60
2020/12/04 00:23:03;;;;;;;74.30;32.13;;;;;;;-0.81;100.00;99760.28;1718698;82;21290;-58
2020/12/04 00:25:31;;;;;;;72.03;27.87;;;;;;;-0.81;100.00;99764.95;1685299;84;21324;-62
2020/12/04 00:27:59;;;;;;;63.65;27.35;;;;;;;-0.75;100.00;99764.09;1712911;83;21170;-61
2020/12/04 00:30:27;;;;;;;65.00;25.40;;;;;;;-0.76;100.00;99775.02;1710930;82;21142;-60
2020/12/04 00:32:55;;;;;;;84.58;31.90;;;;;;;-0.77;100.00;99769.44;1723602;82;21309;-63
2020/12/04 00:35:22;;;;;;;69.40;28.60;;;;;;;-0.74;100.00;99762.07;1713781;82;21153;-62
2020/12/04 00:37:50;;;;;;;67.90;30.30;;;;;;;-0.75;100.00;99757.75;1701153;84;21265;-62
2020/12/04 00:40:18;;;;;;;69.03;29.27;;;;;;;-0.75;100.00;99760.29;1713723;83;21293;-61
2020/12/04 00:42:46;;;;;;;64.80;27.95;;;;;;;-0.78;100.00;99765.16;1707708;84;21300;-62
2020/12/04 00:45:15;;;;;;;76.57;29.72;;;;;;;-0.79;100.00;99760.88;1703994;84;21307;-62
2020/12/04 00:47:43;;;;;;;66.42;27.17;;;;;;;-0.79;100.00;99748.20;1710361;82;21296;-59
2020/12/04 00:50:12;;;;;;;79.05;31.02;;;;;;;-0.77;100.00;99765.64;1716520;82;21130;-62
2020/12/04 00:52:40;;;;;;;59.73;25.10;;;;;;;-0.76;100.00;99760.20;1703217;82;21642;-61
2020/12/04 00:55:08;;;;;;;84.87;31.10;;;;;;;-0.76;100.00;99762.34;1706970;83;21155;-63
2020/12/04 00:57:37;;;;;;;68.92;28.95;;;;;;;-0.79;100.00;99749.47;1704127;83;21270;-64
2020/12/04 01:00:05;;;;;;;69.80;29.37;;;;;;;-0.75;100.00;99744.22;1719110;83;21301;-62
2020/12/04 01:02:33;;;;;;;70.60;28.70;;;;;;;-0.74;100.00;99751.94;1726057;81;21219;-60
2020/12/04 01:05:01;;;;;;;66.70;29.65;;;;;;;-0.75;100.00;99762.83;1744702;82;21177;-59
2020/12/04 01:07:28;;;;;;;64.25;27.95;;;;;;;-0.72;100.00;99758.35;1775817;79;21164;-60
2020/12/04 01:09:56;;;;;;;66.62;26.70;;;;;;;-0.70;100.00;99753.88;1775339;79;21566;-60
2020/12/04 01:12:24;;;;;;;64.20;28.57;;;;;;;-0.67;100.00;99760.81;1767726;79;21169;-61
2020/12/04 01:14:52;;;;;;;66.85;28.57;;;;;;;-0.70;100.00;99751.34;1770112;79;21341;-62
2020/12/04 01:17:19;;;;;;;65.78;26.97;;;;;;;-0.66;100.00;99755.86;1767341;79;21319;-63
2020/12/04 01:19:47;;;;;;;53.85;24.20;;;;;;;-0.62;100.00;99747.19;1736928;81;21339;-61
2020/12/04 01:22:15;;;;;;;59.10;24.85;;;;;;;-0.60;100.00;99751.59;1767569;79;21126;-60
2020/12/04 01:24:43;;;;;;;62.23;25.25;;;;;;;-0.61;100.00;99754.00;1765473;81;21152;-59
2020/12/04 01:27:11;;;;;;;62.83;24.05;;;;;;;-0.63;100.00;99743.78;1745426;81;21174;-60
2020/12/04 01:29:39;;;;;;;56.05;23.67;;;;;;;-0.64;100.00;99750.00;1774011;78;21128;-61
2020/12/04 01:32:06;;;;;;;51.33;19.92;;;;;;;-0.64;100.00;99747.07;1767167;79;21142;-62
2020/12/04 01:34:34;;;;;;;58.05;23.38;;;;;;;-0.62;100.00;99740.85;1767990;79;21291;-62
2020/12/04 01:37:01;;;;;;;57.20;22.75;;;;;;;-0.64;100.00;99732.26;1770512;79;21305;-60
2020/12/04 01:39:29;;;;;;;55.17;23.45;;;;;;;-0.63;100.00;99745.05;1733804;81;21298;-62
2020/12/04 01:41:56;;;;;;;61.02;24.77;;;;;;;-0.63;100.00;99739.98;1736877;81;21255;-61
2020/12/04 01:44:24;;;;;;;60.48;24.72;;;;;;;-0.63;100.00;99732.38;1768403;79;21274;-63
2020/12/04 01:46:52;;;;;;;55.73;21.42;;;;;;;-0.63;100.00;99742.91;1756825;79;21197;-61
2020/12/04 01:49:20;;;;;;;56.00;24.30;;;;;;;-0.63;100.00;99732.77;1766866;80;21154;-62
2020/12/04 01:51:52;;;;;;;55.98;23.07;;;;;;;-0.63;100.00;99731.50;1753855;79;21280;-61
2020/12/04 01:54:21;;;;;;;44.00;20.88;;;;;;;-0.64;100.00;99733.52;1779193;79;21505;-61
2020/12/04 01:56:49;;;;;;;56.63;25.17;;;;;;;-0.64;100.00;99738.59;1762850;78;21386;-60
2020/12/04 01:59:17;;;;;;;54.75;22.75;;;;;;;-0.63;100.00;99745.05;1761320;81;21126;-61
2020/12/04 02:01:47;;;;;;;54.08;25.08;;;;;;;-0.65;100.00;99737.72;1766381;80;21294;-61
2020/12/04 02:04:15;;;;;;;58.38;25.45;;;;;;;-0.63;100.00;99754.31;1743929;81;21155;-63
2020/12/04 02:07:06;;;;;;;72.82;29.60;;;;;;;-0.62;100.00;99739.19;1734862;81;21312;-60
2020/12/04 02:09:42;;;;;;;52.58;24.65;;;;;;;-0.60;100.00;99739.30;1737335;81;21293;-60
2020/12/04 02:12:15;;;;;;;52.10;22.52;;;;;;;-0.61;100.00;99742.59;1753964;81;21125;-61
2020/12/04 02:14:45;;;;;;;51.92;24.47;;;;;;;-0.63;100.00;99749.25;1682331;84;21163;-62
2020/12/04 02:17:13;;;;;;;48.65;22.62;;;;;;;-0.64;100.00;99738.59;1686091;84;21535;-61
2020/12/04 02:19:43;;;;;;;55.08;23.22;;;;;;;-0.64;100.00;99744.93;1707766;82;21171;-59
2020/12/04 02:22:12;;;;;;;45.70;21.52;;;;;;;-0.66;100.00;99749.52;1707472;83;21311;-64
2020/12/04 02:24:41;;;;;;;53.45;22.00;;;;;;;-0.67;100.00;99746.48;1714433;82;21176;-63
2020/12/04 02:27:09;;;;;;;55.83;21.90;;;;;;;-0.71;100.00;99748.73;1707420;83;21327;-59
2020/12/04 02:29:39;;;;;;;58.35;24.15;;;;;;;-0.72;100.00;99730.08;1707510;82;21322;-63
2020/12/04 02:32:15;;;;;;;52.55;22.93;;;;;;;-0.69;100.00;99748.05;1723435;83;21156;-60
2020/12/04 02:34:43;;;;;;;56.55;22.32;;;;;;;-0.72;100.00;99726.67;1681795;84;21315;-63
2020/12/04 02:37:11;;;;;;;53.78;21.93;;;;;;;-0.72;100.00;99745.68;1710310;82;21213;-64
2020/12/04 02:39:39;;;;;;;50.52;24.32;;;;;;;-0.71;100.00;99736.05;1724033;83;21194;-59
2020/12/04 02:42:07;;;;;;;47.70;21.37;;;;;;;-0.71;100.00;99725.52;1706152;83;21184;-60
2020/12/04 02:44:34;;;;;;;50.52;20.23;;;;;;;-0.69;100.00;99732.84;1704038;83;21158;-63
2020/12/04 02:47:02;;;;;;;48.10;22.30;;;;;;;-0.68;100.00;99730.80;1707455;83;21227;-62
2020/12/04 02:49:30;;;;;;;50.58;20.52;;;;;;;-0.67;100.00;99730.00;1705240;83;21173;-61
2020/12/04 02:51:59;;;;;;;51.30;24.10;;;;;;;-0.64;100.00;99747.47;1706213;83;21139;-60
2020/12/04 02:54:27;;;;;;;46.53;20.88;;;;;;;-0.66;100.00;99722.91;1707341;83;21528;-64
2020/12/04 02:56:55;;;;;;;58.63;23.80;;;;;;;-0.62;100.00;99739.59;1719154;82;21166;-60
2020/12/04 02:59:23;;;;;;;44.20;20.48;;;;;;;-0.66;100.00;99734.31;1713395;83;21607;-63
2020/12/04 03:01:52;;;;;;;57.53;23.22;;;;;;;-0.66;100.00;99728.38;1708154;83;21160;-62
2020/12/04 03:04:20;;;;;;;37.75;17.17;;;;;;;-0.66;100.00;99722.03;1724900;81;21503;-60
2020/12/04 03:06:48;;;;;;;49.73;21.70;;;;;;;-0.69;100.00;99715.11;1722617;83;21158;-61
2020/12/04 03:09:15;;;;;;;49.23;22.00;;;;;;;-0.66;100.00;99706.83;1724774;83;21180;-62
2020/12/04 03:11:43;;;;;;;36.58;18.50;;;;;;;-0.66;100.00;99741.92;1727059;83;21300;-61
2020/12/04 03:14:10;;;;;;;46.98;20.08;;;;;;;-0.66;100.00;99743.19;1730787;83;21179;-61
2020/12/04 03:16:38;;;;;;;40.88;19.12;;;;;;;-0.62;100.00;99728.18;1725831;83;21308;-60
2020/12/04 03:19:06;;;;;;;44.55;21.45;;;;;;;-0.62;100.00;99715.50;1723513;83;21147;-61
2020/12/04 03:21:34;;;;;;;46.18;21.48;;;;;;;-0.60;100.00;99743.11;1730346;83;21145;-63
2020/12/04 03:24:01;;;;;;;39.48;17.87;;;;;;;-0.57;100.00;99724.30;1773499;78;21360;-59
2020/12/04 03:26:29;;;;;;;49.65;21.60;;;;;;;-0.57;100.00;99714.16;1771140;79;21171;-61
2020/12/04 03:28:57;;;;;;;53.52;21.75;;;;;;;-0.57;100.00;99723.91;1766741;81;21279;-61
2020/12/04 03:31:25;;;;;;;46.05;20.30;;;;;;;-0.56;100.00;99726.05;1766940;81;21110;-62
2020/12/04 03:33:52;;;;;;;53.10;22.32;;;;;;;-0.53;100.00;99718.67;1766822;81;21160;-62
2020/12/04 03:36:20;;;;;;;51.20;22.32;;;;;;;-0.53;100.00;99717.40;1758308;81;21134;-59
2020/12/04 03:38:48;;;;;;;39.92;18.52;;;;;;;-0.53;100.00;99733.87;1761836;81;21145;-61
2020/12/04 03:41:16;;;;;;;46.28;21.85;;;;;;;-0.54;100.00;99720.69;1766775;79;21152;-61
2020/12/04 03:43:44;;;;;;;50.12;24.80;;;;;;;-0.52;100.00;99722.95;1766322;80;21143;-61
2020/12/04 03:46:12;;;;;;;43.52;19.40;;;;;;;-0.52;100.00;99717.88;1774999;79;21272;-58
2020/12/04 03:48:42;;;;;;;52.75;23.12;;;;;;;-0.51;100.00;99724.33;1765457;79;21318;-60
2020/12/04 03:51:09;;;;;;;49.08;23.05;;;;;;;-0.51;100.00;99720.53;1770105;79;21330;-62
2020/12/04 03:53:38;;;;;;;40.92;21.20;;;;;;;-0.50;100.00;99713.80;1770736;79;21375;-61
2020/12/04 03:56:06;;;;;;;51.15;22.35;;;;;;;-0.48;100.00;99728.73;1760133;80;21312;-62
2020/12/04 03:58:34;;;;;;;42.95;21.23;;;;;;;-0.48;100.00;99722.39;1759523;81;21353;-60
2020/12/04 04:01:01;;;;;;;57.13;24.12;;;;;;;-0.45;100.00;99722.19;1767387;81;21162;-59
2020/12/04 04:03:29;;;;;;;47.93;22.58;;;;;;;-0.45;100.00;99708.24;1759188;79;21192;-63
2020/12/04 04:05:56;;;;;;;47.03;21.82;;;;;;;-0.44;100.00;99715.45;1771695;79;21114;-62
2020/12/04 04:08:24;;;;;;;47.58;23.07;;;;;;;-0.45;100.00;99725.13;1766907;81;21130;-63
2020/12/04 04:10:53;;;;;;;46.80;22.95;;;;;;;-0.42;100.00;99724.05;1768697;79;21154;-61
2020/12/04 04:13:21;;;;;;;45.00;21.33;;;;;;;-0.38;100.00;99731.09;1759323;79;21158;-62
2020/12/04 04:15:49;;;;;;;41.80;19.77;;;;;;;-0.38;100.00;99718.78;1764859;80;21168;-63
2020/12/04 04:18:17;;;;;;;48.08;21.68;;;;;;;-0.38;100.00;99728.92;1768173;79;21346;-60
2020/12/04 04:20:44;;;;;;;48.50;21.77;;;;;;;-0.38;100.00;99727.30;1765229;81;21280;-64
2020/12/04 04:23:13;;;;;;;57.50;23.70;;;;;;;-0.36;100.00;99726.98;1772534;79;21275;-63
2020/12/04 04:25:41;;;;;;;42.93;21.15;;;;;;;-0.36;100.00;99725.71;1763214;81;21181;-62
2020/12/04 04:28:12;;;;;;;43.28;21.25;;;;;;;-0.35;100.00;99738.03;1753966;79;21131;-59
2020/12/04 04:30:40;;;;;;;45.45;19.27;;;;;;;-0.36;100.00;99740.05;1764247;81;21516;-63
2020/12/04 04:33:08;;;;;;;46.25;22.25;;;;;;;-0.35;100.00;99724.95;1756234;79;21288;-61
2020/12/04 04:35:37;;;;;;;47.95;23.38;;;;;;;-0.35;100.00;99732.56;1768587;81;21154;-62
2020/12/04 04:38:05;;;;;;;51.40;22.55;;;;;;;-0.38;100.00;99713.34;1776084;78;21585;-63
2020/12/04 04:40:33;;;;;;;41.02;20.35;;;;;;;-0.37;100.00;99735.38;1765015;79;21145;-60
2020/12/04 04:43:12;;;;;;;42.62;19.05;;;;;;;-0.38;100.00;99731.09;1770632;79;21340;-63
2020/12/04 04:45:45;;;;;;;48.40;22.00;;;;;;;-0.35;100.00;99722.42;1772408;79;21320;-63
2020/12/04 04:48:25;;;;;;;47.88;22.17;;;;;;;-0.36;100.00;99734.98;1765875;80;21297;-62
2020/12/04 04:50:56;;;;;;;43.92;21.85;;;;;;;-0.35;100.00;99714.81;1760833;79;21230;-61
2020/12/04 04:53:26;;;;;;;58.98;25.37;;;;;;;-0.32;100.00;99725.15;1753489;79;21054;-60
2020/12/04 04:58:31;;;;;;;53.50;21.93;;;;;;;-0.24;100.00;99724.39;1812509;77;22187;-61
2020/12/04 05:00:59;;;;;;;40.88;20.35;;;;;;;-0.26;100.00;99735.69;1781303;78;21118;-61
2020/12/04 05:03:26;;;;;;;45.92;23.22;;;;;;;-0.29;100.00;99722.81;1768343;80;21136;-59
2020/12/04 05:05:54;;;;;;;51.30;23.00;;;;;;;-0.27;100.00;99712.37;1786172;80;21166;-60
2020/12/04 05:08:23;;;;;;;52.70;21.77;;;;;;;-0.28;100.00;99716.98;1782026;80;21146;-62
2020/12/04 05:10:53;;;;;;;40.50;20.40;;;;;;;-0.25;100.00;99717.17;1784793;80;21289;-62
2020/12/04 05:13:22;;;;;;;52.40;23.32;;;;;;;-0.23;100.00;99718.16;1768088;79;21138;-59
2020/12/04 05:15:50;;;;;;;44.80;20.85;;;;;;;-0.23;100.00;99732.11;1769950;80;21160;-58
2020/12/04 05:18:19;;;;;;;48.68;23.12;;;;;;;-0.22;100.00;99719.91;1783261;78;21110;-59
2020/12/04 05:20:53;;;;;;;50.65;20.77;;;;;;;-0.22;100.00;99730.05;1761293;80;21502;-61
2020/12/04 05:23:21;;;;;;;56.28;23.30;;;;;;;-0.22;100.00;99730.45;1779061;80;21690;-59
2020/12/04 05:25:55;;;;;;;48.45;21.55;;;;;;;-0.22;100.00;99713.56;1774432;80;21115;-61
2020/12/04 05:28:26;;;;;;;52.00;23.40;;;;;;;-0.22;100.00;99727.52;1706960;81;21163;-59
2020/12/04 05:31:10;;;;;;;51.45;22.15;;;;;;;-0.22;100.00;99728.78;1722617;82;21342;-61
2020/12/04 05:33:44;;;;;;;49.70;24.12;;;;;;;-0.20;100.00;99721.65;1715579;83;21323;-62
2020/12/04 05:36:10;;;;;;;56.58;24.10;;;;;;;-0.18;100.00;99720.09;1725035;82;21129;-69
2020/12/04 05:38:51;;;;;;;68.30;27.20;;;;;;;-0.15;100.00;99721.56;1726004;82;21179;-69
2020/12/04 05:41:19;;;;;;;53.52;25.62;;;;;;;-0.14;100.00;99717.87;1726086;83;21310;-68
2020/12/04 05:43:46;;;;;;;48.40;24.05;;;;;;;-0.10;100.00;99720.20;1726274;82;21163;-68
2020/12/04 05:46:23;;;;;;;60.65;26.75;;;;;;;-0.07;100.00;99730.58;1726259;82;21188;-68
2020/12/04 05:49:05;;;;;;;51.25;21.82;;;;;;;-0.05;100.00;99731.53;1726261;83;21172;-68
2020/12/04 05:51:38;;;;;;;54.07;24.83;;;;;;;-0.04;100.00;99745.98;1726306;83;21305;-68
2020/12/04 05:54:10;;;;;;;50.43;25.10;;;;;;;-0.02;100.00;99735.56;1679944;82;21187;-69
2020/12/04 05:56:40;;;;;;;55.23;24.55;;;;;;;0.00;100.00;99739.08;1720604;83;21180;-68
2020/12/04 05:59:12;;;;;;;56.85;27.45;;;;;;;0.02;100.00;99747.64;1702070;84;21826;-67
2020/12/04 06:01:46;;;;;;;56.95;27.02;;;;;;;0.04;100.00;99737.21;1674666;84;21179;-68
2020/12/04 06:04:19;;;;;;;56.85;24.55;;;;;;;0.07;100.00;99736.53;1672889;84;22219;-64
2020/12/04 06:06:49;;;;;;;51.88;24.05;;;;;;;0.09;100.00;99732.44;1713123;83;21169;-64
2020/12/04 06:09:23;;;;;;;57.00;25.40;;;;;;;0.11;100.00;99743.17;1748833;82;21578;-66
2020/12/04 06:11:52;;;;;;;53.68;24.07;;;;;;;0.10;100.00;99749.05;1748448;81;21305;-66
2020/12/04 06:14:22;;;;;;;53.40;24.82;;;;;;;0.10;100.00;99748.14;1748717;81;21131;-66
2020/12/04 06:17:11;;;;;;;73.87;29.98;;;;;;;0.12;100.00;99747.45;1748760;82;21159;-65
2020/12/04 06:19:41;;;;;;;53.13;26.23;;;;;;;0.14;100.00;99750.98;1748728;82;21123;-65
2020/12/04 06:22:18;;;;;;;56.15;24.15;;;;;;;0.16;100.00;99745.62;1748637;81;21317;-65
2020/12/04 06:24:59;;;;;;;54.40;26.52;;;;;;;0.18;100.00;99740.66;1748545;82;21147;-64
2020/12/04 06:27:44;;;;;;;57.85;26.30;;;;;;;0.18;100.00;99750.41;1748708;82;21305;-64
2020/12/04 06:30:17;;;;;;;62.98;29.70;;;;;;;0.18;100.00;99757.16;1748788;81;21571;-66
2020/12/04 06:32:51;;;;;;;57.03;25.57;;;;;;;0.20;100.00;99766.63;1748804;81;21155;-65
2020/12/04 06:35:41;;;;;;;57.95;27.02;;;;;;;0.21;100.00;99763.30;1748606;82;21297;-65
2020/12/04 06:38:40;;;;;;;60.20;26.93;;;;;;;0.21;100.00;99786.14;1748474;81;21183;-65
2020/12/04 06:41:45;;;;;;;63.05;29.37;;;;;;;0.21;100.00;99783.60;1748544;82;21143;-65
2020/12/04 06:44:22;;;;;;;64.77;28.45;;;;;;;0.21;100.00;99775.98;1748747;82;21633;-65
2020/12/04 06:46:57;;;;;;;63.40;30.70;;;;;;;0.27;100.00;99775.89;1748811;82;21151;-65
2020/12/04 06:49:38;;;;;;;59.50;29.42;;;;;;;0.29;100.00;99775.61;1748620;81;21182;-63
2020/12/04 06:52:14;;;;;;;51.00;23.85;;;;;;;0.32;100.00;99779.61;1748689;82;21151;-65
2020/12/04 06:54:46;;;;;;;56.90;28.42;;;;;;;0.31;100.00;99796.91;1748495;81;21135;-65
2020/12/04 06:57:23;;;;;;;52.90;25.92;;;;;;;0.33;100.00;99780.08;1749727;81;21131;-65
2020/12/04 06:59:51;;;;;;;61.73;28.90;;;;;;;0.34;100.00;99772.97;1756358;80;21285;-64
2020/12/04 07:02:21;;;;;;;57.93;27.00;;;;;;;0.35;100.00;99778.53;1756123;82;21146;-64
2020/12/04 07:04:54;;;;;;;65.75;28.92;;;;;;;0.39;100.00;99777.95;1756467;80;21154;-64
2020/12/04 07:07:25;;;;;;;60.35;25.95;;;;;;;0.42;100.00;99778.15;1756493;81;21303;-64
2020/12/04 07:10:03;;;;;;;59.60;24.92;;;;;;;0.42;100.00;99784.50;1756577;80;21131;-65
2020/12/04 07:12:33;;;;;;;70.32;29.87;;;;;;;0.41;100.00;99787.83;1756588;82;21161;-64
2020/12/04 07:15:01;;;;;;;63.75;29.23;;;;;;;0.43;100.00;99777.35;1756707;80;21553;-65
2020/12/04 07:17:30;;;;;;;64.95;30.77;;;;;;;0.43;100.00;99782.44;1756617;80;21123;-65
2020/12/04 07:19:59;;;;;;;66.10;32.45;;;;;;;0.47;100.00;99783.12;1756603;82;21297;-64
2020/12/04 07:22:28;;;;;;;73.47;33.25;;;;;;;0.48;100.00;99786.14;1756718;82;21553;-63
2020/12/04 07:24:57;;;;;;;68.47;31.40;;;;;;;0.50;100.00;99769.75;1756746;81;21147;-64
2020/12/04 07:27:50;;;;;;;83.25;35.13;;;;;;;0.52;100.00;99786.84;1756653;82;21280;-64
2020/12/04 07:30:18;;;;;;;77.55;33.98;;;;;;;0.54;100.00;99788.22;1728306;82;21148;-64
2020/12/04 07:32:54;;;;;;;81.22;36.13;;;;;;;0.58;100.00;99785.08;1728267;82;21171;-64
2020/12/04 07:35:23;;;;;;;73.02;34.78;;;;;;;0.60;100.00;99780.98;1728126;82;21152;-65
2020/12/04 07:37:51;;;;;;;79.65;32.93;;;;;;;0.62;100.00;99784.50;1728093;82;21125;-65
2020/12/04 07:40:19;;;;;;;73.20;32.17;;;;;;;0.63;100.00;99793.47;1728157;82;21183;-64
2020/12/04 07:42:48;;;;;;;89.95;33.63;;;;;;;0.64;100.00;99785.09;1728173;82;21172;-65
2020/12/04 07:45:18;;;;;;;88.10;38.10;;;;;;;0.63;100.00;99804.89;1728057;82;21157;-64
2020/12/04 07:47:46;;;;;;;74.30;31.75;;;;;;;0.64;100.00;99780.00;1728164;82;21121;-65
2020/12/04 07:50:15;;;;;;;86.20;34.90;;;;;;;0.64;100.00;99804.14;1728013;82;21299;-66
2020/12/04 07:52:53;;;;;;;91.37;35.23;;;;;;;0.69;100.00;99807.34;1728217;82;21157;-65
2020/12/04 07:55:22;;;;;;;81.02;30.72;;;;;;;0.68;100.00;99805.59;1728345;82;21310;-65
2020/12/04 07:58:04;;;;;;;89.85;33.53;;;;;;;0.70;100.00;99811.66;1728013;82;21129;-64
2020/12/04 08:00:35;;;;;;;;;;;;;;;0.70;100.00;99825.63;1730868;82;21173;-65
2020/12/04 08:03:10;;;;;;;89.40;38.48;;;;;;;0.68;100.00;99810.28;1728139;82;20156;-65
2020/12/04 08:05:39;;;;;;;93.65;36.60;;;;;;;0.69;100.00;99812.05;1727490;82;21176;-66
2020/12/04 08:08:08;;;;;;;86.50;33.83;;;;;;;0.73;100.00;99813.12;1728083;82;21144;-65
2020/12/04 08:10:37;;;;;;;97.20;36.05;;;;;;;0.74;100.00;99815.77;1728188;82;21172;-66
2020/12/04 08:13:09;;;;;;;81.35;33.73;;;;;;;0.78;100.00;99806.66;1727994;82;21342;-65
2020/12/04 08:15:42;;;;;;;83.55;35.25;;;;;;;0.81;100.00;99798.83;1728026;82;21128;-65
2020/12/04 08:18:10;;;;;;;79.40;36.60;;;;;;;0.85;100.00;99791.03;1728071;82;21290;-66
2020/12/04 08:20:40;;;;;;;90.40;35.47;;;;;;;0.90;100.00;99798.55;1728284;82;21162;-64
2020/12/04 08:23:08;;;;;;;68.52;30.68;;;;;;;0.94;100.00;99794.52;1727978;82;21144;-66
2020/12/04 08:25:36;;;;;;;80.28;34.03;;;;;;;0.96;100.00;99796.38;1728046;82;21156;-64
2020/12/04 08:28:06;;;;;;;83.33;37.40;;;;;;;0.98;100.00;99810.06;1727843;82;21120;-65
2020/12/04 08:30:39;;;;;;;81.30;36.42;;;;;;;1.00;100.00;99812.31;1725373;83;21243;-64
2020/12/04 08:33:06;;;;;;;83.70;32.77;;;;;;;1.01;100.00;99809.38;1725455;83;21296;-65
2020/12/04 08:35:41;;;;;;;75.08;31.55;;;;;;;1.01;100.00;99796.27;1725339;83;21388;-65
2020/12/04 08:38:16;;;;;;;88.37;35.95;;;;;;;1.00;100.00;99812.31;1725334;82;21671;-64
2020/12/04 08:40:46;;;;;;;95.62;37.48;;;;;;;1.02;100.00;99813.30;1725137;82;21300;-64
2020/12/04 08:43:22;;;;;;;99.90;39.63;;;;;;;1.03;100.00;99808.69;1725434;82;21161;-66
2020/12/04 08:45:53;;;;;;;90.35;35.90;;;;;;;1.03;100.00;99802.73;1725198;83;21166;-64
2020/12/04 08:48:26;;;;;;;98.03;40.28;;;;;;;1.07;100.00;99797.94;1725282;83;21580;-64
2020/12/04 08:50:59;;;;;;;85.83;29.05;;;;;;;1.11;100.00;99801.53;1725605;83;21696;-64
2020/12/04 08:53:35;;;;;;;71.00;32.08;;;;;;;1.15;100.00;99805.16;1853407;77;22174;-66
2020/12/04 08:56:04;;;;;;;79.45;33.33;;;;;;;1.10;100.00;99816.31;1758922;81;21584;-65
2020/12/04 08:58:33;;;;;;;81.80;33.83;;;;;;;1.13;100.00;99800.38;1789776;80;21300;-65
2020/12/04 09:01:02;;;;;;;79.27;35.33;;;;;;;1.15;100.00;99808.98;1787934;80;21174;-65
2020/12/04 09:03:30;;;;;;;73.75;31.48;;;;;;;1.16;100.00;99820.89;1789849;80;21284;-65
2020/12/04 09:05:58;;;;;;;61.23;28.83;;;;;;;1.17;100.00;99817.55;1790149;80;21284;-66
2020/12/04 09:08:26;;;;;;;77.87;37.58;;;;;;;1.15;100.00;99808.98;1789835;80;21295;-66
2020/12/04 09:10:54;;;;;;;79.42;34.90;;;;;;;1.13;100.00;99810.54;1789878;80;21584;-65
2020/12/04 09:13:22;;;;;;;77.08;34.10;;;;;;;1.14;100.00;99796.63;1790031;80;21217;-65
2020/12/04 09:15:49;;;;;;;79.67;31.27;;;;;;;1.13;100.00;99792.75;1789834;80;21264;-65
2020/12/04 09:18:17;;;;;;;70.52;28.60;;;;;;;1.14;100.00;99800.45;1789889;80;21138;-66
2020/12/04 09:20:45;;;;;;;87.35;31.62;;;;;;;1.13;100.00;99793.62;1789826;80;21142;-63
2020/12/04 09:23:12;;;;;;;77.00;32.00;;;;;;;1.13;100.00;99810.14;1790033;80;21293;-64
2020/12/04 09:25:40;;;;;;;68.37;28.57;;;;;;;1.16;100.00;99805.64;1789856;80;21150;-65
2020/12/04 09:28:09;;;;;;;66.77;26.87;;;;;;;1.14;100.00;99802.11;1788334;80;21726;-65
2020/12/04 09:30:37;;;;;;;58.35;22.82;;;;;;;1.12;100.00;99794.78;1789905;80;21154;-65
2020/12/04 09:33:04;;;;;;;52.23;22.75;;;;;;;1.11;100.00;99798.99;1789787;80;21289;-66
2020/12/04 09:35:32;;;;;;;58.25;25.23;;;;;;;1.13;100.00;99772.41;1789839;80;21142;-65
2020/12/04 09:37:59;;;;;;;57.27;23.77;;;;;;;1.15;100.00;99793.33;1789946;80;21273;-65
2020/12/04 09:40:28;;;;;;;71.95;30.77;;;;;;;1.16;100.00;99790.38;1790023;80;21158;-64
2020/12/04 09:42:56;;;;;;;75.72;31.25;;;;;;;1.15;100.00;99792.05;1789822;80;21269;-65
2020/12/04 09:45:23;;;;;;;59.38;24.27;;;;;;;1.20;100.00;99796.16;1789807;80;21159;-65
2020/12/04 09:47:51;;;;;;;71.15;27.60;;;;;;;1.15;100.00;99791.18;1789835;80;21158;-64
2020/12/04 09:50:19;;;;;;;68.78;29.60;;;;;;;1.12;100.00;99804.95;1789857;80;21146;-65
2020/12/04 09:52:47;;;;;;;58.95;23.10;;;;;;;1.12;100.00;99783.34;1785118;80;21304;-66
2020/12/04 09:55:15;;;;;;;60.17;22.50;;;;;;;1.08;100.00;99792.45;1781451;80;21593;-66
2020/12/04 09:57:44;;;;;;;57.90;25.43;;;;;;;1.04;100.00;99779.96;1820508;79;21170;-66
2020/12/04 10:00:11;;;;;;;64.97;27.87;;;;;;;1.02;100.00;99771.36;1820494;79;21261;-63
2020/12/04 10:02:41;;;;;;;69.12;26.45;;;;;;;1.03;100.00;99799.79;1744568;82;21286;-64
2020/12/04 10:05:09;;;;;;;64.90;29.10;;;;;;;1.03;100.00;99798.92;1770833;79;21276;-66
2020/12/04 10:07:37;;;;;;;58.68;27.10;;;;;;;1.02;100.00;99795.50;1787478;79;21178;-64
2020/12/04 10:10:12;;;;;;;67.58;27.67;;;;;;;1.02;100.00;99790.42;1788228;79;21159;-66
2020/12/04 10:12:40;;;;;;;64.45;25.90;;;;;;;1.01;100.00;99806.83;1787760;80;21165;-67
2020/12/04 10:15:07;;;;;;;68.25;28.00;;;;;;;1.03;100.00;99795.98;1801104;79;21142;-65
2020/12/04 10:17:35;;;;;;;73.80;30.12;;;;;;;0.98;100.00;99796.08;1808274;79;21182;-66
2020/12/04 10:20:03;;;;;;;72.25;28.15;;;;;;;0.98;100.00;99795.21;1787722;80;21296;-66
2020/12/04 10:22:31;;;;;;;67.30;29.48;;;;;;;1.00;100.00;99802.15;1787815;80;21169;-65
2020/12/04 10:24:58;;;;;;;57.88;24.25;;;;;;;1.00;100.00;99798.73;1786553;80;21217;-65
2020/12/04 10:27:26;;;;;;;61.50;25.25;;;;;;;1.02;100.00;99780.66;1787628;80;21300;-65
2020/12/04 10:29:55;;;;;;;62.00;26.75;;;;;;;1.00;100.00;99794.52;1787495;80;21146;-66
2020/12/04 10:32:23;;;;;;;58.60;25.82;;;;;;;1.00;100.00;99798.34;1787792;80;21142;-64
2020/12/04 10:34:51;;;;;;;63.63;26.15;;;;;;;1.03;100.00;99799.79;1787514;80;21146;-66
2020/12/04 10:37:18;;;;;;;56.50;26.23;;;;;;;1.03;100.00;99797.25;1787540;80;21158;-67
2020/12/04 10:39:47;;;;;;;47.98;22.20;;;;;;;1.06;100.00;99788.94;1787838;80;21166;-65
2020/12/04 10:42:14;;;;;;;56.33;24.57;;;;;;;1.06;100.00;99798.70;1787885;80;21525;-65
2020/12/04 10:44:42;;;;;;;51.23;25.05;;;;;;;1.03;100.00;99784.54;1787578;80;21154;-65
2020/12/04 10:47:09;;;;;;;58.42;27.17;;;;;;;1.06;100.00;99791.08;1787649;80;21280;-67
2020/12/04 10:49:37;;;;;;;65.05;27.22;;;;;;;1.10;100.00;99780.73;1787769;80;21165;-64
2020/12/04 10:52:05;;;;;;;61.88;29.95;;;;;;;1.14;100.00;99789.41;1781836;80;21260;-66
2020/12/04 10:54:33;;;;;;;68.83;30.00;;;;;;;1.15;100.00;99790.78;1747712;82;21300;-65
2020/12/04 10:57:01;;;;;;;55.88;25.08;;;;;;;1.21;100.00;99787.33;1747810;82;21312;-65
2020/12/04 10:59:29;;;;;;;58.70;25.05;;;;;;;1.21;100.00;99785.19;1747901;81;21577;-65
2020/12/04 11:02:05;;;;;;;61.73;29.23;;;;;;;1.22;100.00;99785.66;1747821;81;21139;-64
2020/12/04 11:07:13;;;;;;;70.70;27.17;;;;;;;1.18;100.00;99790.09;1747925;82;21190;-64
2020/12/04 11:09:42;;;;;;;75.37;33.98;;;;;;;1.20;100.00;99783.45;1744005;82;21632;-64
2020/12/04 11:12:11;;;;;;;82.17;33.78;;;;;;;1.18;100.00;99791.36;1747903;82;21143;-66
2020/12/04 11:14:43;;;;;;;86.12;36.60;;;;;;;1.14;100.00;99789.41;1747768;82;21281;-66
2020/12/04 11:17:08;;;;;;;87.82;35.13;;;;;;;1.11;100.00;99789.22;1686934;85;21684;-63
2020/12/04 11:19:36;;;;;;;84.87;36.03;;;;;;;1.09;100.00;99785.30;1712391;84;21187;-64
2020/12/04 11:22:04;;;;;;;93.27;38.02;;;;;;;1.12;100.00;99787.16;1685112;85;21223;-65
2020/12/04 11:24:32;;;;;;;97.95;42.03;;;;;;;1.13;100.00;99785.12;1712244;84;21178;-65
2020/12/04 11:27:00;;;;;;;98.72;39.35;;;;;;;1.13;100.00;99785.12;1685222;85;21187;-65
2020/12/04 11:29:28;;;;;;;92.15;38.40;;;;;;;1.16;100.00;99787.84;1712147;83;21300;-65
2020/12/04 11:31:56;;;;;;;106.65;41.95;;;;;;;1.17;100.00;99776.88;1685311;85;21340;-65